sensor_id;sensor_type;location;lat;lon;timestamp;pressure;altitude;pressure_sealevel;temperature;humidity
77323;BME280;66384;51.052;9.850;2023-04-16T00:00:18;98504.83;;;9.05;79.03
77323;BME280;66384;51.052;9.850;2023-04-16T00:02:47;98507.09;;;9.05;79.01
77323;BME280;66384;51.052;9.850;2023-04-16T00:05:17;98504.66;;;9.05;79.09
77323;BME280;66384;51.052;9.850;2023-04-16T00:07:46;98504.59;;;9.02;79.01
77323;BME280;66384;51.052;9.850;2023-04-16T00:10:15;98506.11;;;9.02;79.02
77323;BME280;66384;51.052;9.850;2023-04-16T00:12:44;98509.19;;;9.01;79.03
77323;BME280;66384;51.052;9.850;2023-04-16T00:15:14;98511.98;;;9.02;79.00
77323;BME280;66384;51.052;9.850;2023-04-16T00:17:43;98512.85;;;9.03;79.00
77323;BME280;66384;51.052;9.850;2023-04-16T00:20:12;98509.71;;;9.02;79.16
77323;BME280;66384;51.052;9.850;2023-04-16T00:22:41;98510.02;;;9.00;79.16
77323;BME280;66384;51.052;9.850;2023-04-16T00:25:11;98512.45;;;9.01;79.12
77323;BME280;66384;51.052;9.850;2023-04-16T00:27:41;98511.99;;;9.03;79.07
77323;BME280;66384;51.052;9.850;2023-04-16T00:30:11;98515.23;;;9.03;79.20
77323;BME280;66384;51.052;9.850;2023-04-16T00:32:40;98511.80;;;9.03;78.99
77323;BME280;66384;51.052;9.850;2023-04-16T00:35:09;98513.38;;;9.03;79.02
77323;BME280;66384;51.052;9.850;2023-04-16T00:37:39;98515.77;;;9.04;78.96
77323;BME280;66384;51.052;9.850;2023-04-16T00:40:10;98514.77;;;9.04;78.93
77323;BME280;66384;51.052;9.850;2023-04-16T00:42:40;98516.19;;;9.06;79.17
77323;BME280;66384;51.052;9.850;2023-04-16T00:45:11;98514.85;;;9.07;78.88
77323;BME280;66384;51.052;9.850;2023-04-16T00:47:41;98518.31;;;9.08;79.05
77323;BME280;66384;51.052;9.850;2023-04-16T00:50:11;98513.86;;;9.08;78.94
77323;BME280;66384;51.052;9.850;2023-04-16T00:52:40;98514.40;;;9.09;79.06
77323;BME280;66384;51.052;9.850;2023-04-16T00:55:11;98512.39;;;9.11;78.87
77323;BME280;66384;51.052;9.850;2023-04-16T00:57:40;98513.64;;;9.13;78.66
77323;BME280;66384;51.052;9.850;2023-04-16T01:00:11;98512.77;;;9.13;78.73
77323;BME280;66384;51.052;9.850;2023-04-16T01:02:40;98516.20;;;9.12;78.84
77323;BME280;66384;51.052;9.850;2023-04-16T01:05:10;98514.27;;;9.11;78.97
77323;BME280;66384;51.052;9.850;2023-04-16T01:07:39;98514.73;;;9.09;78.75
77323;BME280;66384;51.052;9.850;2023-04-16T01:10:09;98515.09;;;9.10;78.69
77323;BME280;66384;51.052;9.850;2023-04-16T01:12:39;98516.14;;;9.10;78.64
77323;BME280;66384;51.052;9.850;2023-04-16T01:15:09;98519.42;;;9.11;78.75
77323;BME280;66384;51.052;9.850;2023-04-16T01:17:37;98518.41;;;9.11;78.68
77323;BME280;66384;51.052;9.850;2023-04-16T01:20:07;98523.36;;;9.11;78.70
77323;BME280;66384;51.052;9.850;2023-04-16T01:22:37;98526.27;;;9.10;78.67
77323;BME280;66384;51.052;9.850;2023-04-16T01:25:07;98524.17;;;9.09;78.72
77323;BME280;66384;51.052;9.850;2023-04-16T01:27:36;98524.52;;;9.09;78.77
77323;BME280;66384;51.052;9.850;2023-04-16T01:30:08;98526.08;;;9.09;78.79
77323;BME280;66384;51.052;9.850;2023-04-16T01:32:38;98530.19;;;9.09;78.62
77323;BME280;66384;51.052;9.850;2023-04-16T01:35:07;98527.61;;;9.09;78.81
77323;BME280;66384;51.052;9.850;2023-04-16T01:37:37;98531.86;;;9.08;78.62
77323;BME280;66384;51.052;9.850;2023-04-16T01:40:07;98528.91;;;9.07;78.83
77323;BME280;66384;51.052;9.850;2023-04-16T01:42:37;98531.65;;;9.07;78.84
77323;BME280;66384;51.052;9.850;2023-04-16T01:45:08;98529.07;;;9.06;78.77
77323;BME280;66384;51.052;9.850;2023-04-16T01:47:38;98532.34;;;9.07;78.78
77323;BME280;66384;51.052;9.850;2023-04-16T01:50:08;98537.14;;;9.07;78.80
77323;BME280;66384;51.052;9.850;2023-04-16T01:52:38;98539.02;;;9.07;78.69
77323;BME280;66384;51.052;9.850;2023-04-16T01:55:08;98541.45;;;9.07;78.59
77323;BME280;66384;51.052;9.850;2023-04-16T01:57:37;98538.84;;;9.06;78.48
77323;BME280;66384;51.052;9.850;2023-04-16T02:00:08;98535.38;;;9.05;78.52
77323;BME280;66384;51.052;9.850;2023-04-16T02:02:38;98541.21;;;9.05;78.31
77323;BME280;66384;51.052;9.850;2023-04-16T02:05:08;98537.27;;;9.05;78.44
77323;BME280;66384;51.052;9.850;2023-04-16T02:07:37;98540.73;;;9.06;78.66
77323;BME280;66384;51.052;9.850;2023-04-16T02:10:07;98534.88;;;9.06;78.57
77323;BME280;66384;51.052;9.850;2023-04-16T02:12:37;98536.43;;;9.06;78.53
77323;BME280;66384;51.052;9.850;2023-04-16T02:15:08;98540.89;;;9.06;78.27
77323;BME280;66384;51.052;9.850;2023-04-16T02:17:37;98539.54;;;9.06;78.35
77323;BME280;66384;51.052;9.850;2023-04-16T02:20:08;98539.31;;;9.05;78.47
77323;BME280;66384;51.052;9.850;2023-04-16T02:22:38;98543.35;;;9.02;78.26
77323;BME280;66384;51.052;9.850;2023-04-16T02:25:08;98543.66;;;9.01;78.17
77323;BME280;66384;51.052;9.850;2023-04-16T02:27:37;98545.88;;;9.01;78.40
77323;BME280;66384;51.052;9.850;2023-04-16T02:30:08;98546.73;;;9.00;78.24
77323;BME280;66384;51.052;9.850;2023-04-16T02:32:38;98548.20;;;8.99;78.31
77323;BME280;66384;51.052;9.850;2023-04-16T02:35:08;98544.05;;;8.97;78.28
77323;BME280;66384;51.052;9.850;2023-04-16T02:37:37;98551.36;;;8.95;78.56
77323;BME280;66384;51.052;9.850;2023-04-16T02:40:10;98550.46;;;8.93;78.72
77323;BME280;66384;51.052;9.850;2023-04-16T02:42:39;98551.98;;;8.93;78.73
77323;BME280;66384;51.052;9.850;2023-04-16T02:45:10;98555.23;;;8.93;78.63
77323;BME280;66384;51.052;9.850;2023-04-16T02:47:40;98556.59;;;8.92;78.88
77323;BME280;66384;51.052;9.850;2023-04-16T02:50:11;98555.63;;;8.89;78.75
77323;BME280;66384;51.052;9.850;2023-04-16T02:52:40;98557.62;;;8.86;78.96
77323;BME280;66384;51.052;9.850;2023-04-16T02:55:11;98557.91;;;8.84;78.98
77323;BME280;66384;51.052;9.850;2023-04-16T02:57:40;98554.06;;;8.82;79.04
77323;BME280;66384;51.052;9.850;2023-04-16T03:00:11;98556.94;;;8.81;79.10
77323;BME280;66384;51.052;9.850;2023-04-16T03:02:40;98560.13;;;8.78;78.90
77323;BME280;66384;51.052;9.850;2023-04-16T03:05:10;98560.39;;;8.76;79.25
77323;BME280;66384;51.052;9.850;2023-04-16T03:07:39;98557.25;;;8.74;79.24
77323;BME280;66384;51.052;9.850;2023-04-16T03:10:09;98562.85;;;8.72;79.22
77323;BME280;66384;51.052;9.850;2023-04-16T03:12:40;98561.42;;;8.70;79.18
77323;BME280;66384;51.052;9.850;2023-04-16T03:15:10;98564.86;;;8.71;79.32
77323;BME280;66384;51.052;9.850;2023-04-16T03:17:39;98565.89;;;8.71;79.32
77323;BME280;66384;51.052;9.850;2023-04-16T03:20:10;98566.21;;;8.70;79.40
77323;BME280;66384;51.052;9.850;2023-04-16T03:22:39;98566.85;;;8.69;79.16
77323;BME280;66384;51.052;9.850;2023-04-16T03:25:09;98570.59;;;8.68;79.21
77323;BME280;66384;51.052;9.850;2023-04-16T03:27:38;98575.34;;;8.66;79.47
77323;BME280;66384;51.052;9.850;2023-04-16T03:30:09;98572.04;;;8.64;79.25
77323;BME280;66384;51.052;9.850;2023-04-16T03:32:38;98573.42;;;8.65;79.44
77323;BME280;66384;51.052;9.850;2023-04-16T03:35:09;98574.77;;;8.64;79.42
77323;BME280;66384;51.052;9.850;2023-04-16T03:37:53;98577.02;;;8.64;79.43
77323;BME280;66384;51.052;9.850;2023-04-16T03:40:22;98580.60;;;8.64;79.40
77323;BME280;66384;51.052;9.850;2023-04-16T03:42:51;98583.20;;;8.65;79.39
77323;BME280;66384;51.052;9.850;2023-04-16T03:45:20;98580.63;;;8.65;79.24
77323;BME280;66384;51.052;9.850;2023-04-16T03:47:50;98584.61;;;8.66;79.28
77323;BME280;66384;51.052;9.850;2023-04-16T03:50:20;98583.11;;;8.68;79.35
77323;BME280;66384;51.052;9.850;2023-04-16T03:52:49;98584.65;;;8.67;79.34
77323;BME280;66384;51.052;9.850;2023-04-16T03:55:18;98585.45;;;8.66;78.94
77323;BME280;66384;51.052;9.850;2023-04-16T03:57:48;98584.73;;;8.65;79.03
77323;BME280;66384;51.052;9.850;2023-04-16T04:00:18;98581.30;;;8.65;79.30
77323;BME280;66384;51.052;9.850;2023-04-16T04:02:48;98580.90;;;8.63;79.40
77323;BME280;66384;51.052;9.850;2023-04-16T04:05:17;98584.91;;;8.65;79.18
77323;BME280;66384;51.052;9.850;2023-04-16T04:07:46;98586.94;;;8.64;79.09
77323;BME280;66384;51.052;9.850;2023-04-16T04:10:16;98589.52;;;8.63;79.25
77323;BME280;66384;51.052;9.850;2023-04-16T04:12:45;98589.81;;;8.63;79.14
77323;BME280;66384;51.052;9.850;2023-04-16T04:15:15;98592.88;;;8.62;79.14
77323;BME280;66384;51.052;9.850;2023-04-16T04:17:44;98594.98;;;8.63;79.37
77323;BME280;66384;51.052;9.850;2023-04-16T04:20:14;98598.98;;;8.65;79.31
77323;BME280;66384;51.052;9.850;2023-04-16T04:22:43;98600.93;;;8.68;79.23
77323;BME280;66384;51.052;9.850;2023-04-16T04:25:13;98605.10;;;8.69;79.11
77323;BME280;66384;51.052;9.850;2023-04-16T04:27:42;98604.66;;;8.71;79.10
77323;BME280;66384;51.052;9.850;2023-04-16T04:30:12;98607.42;;;8.73;78.92
77323;BME280;66384;51.052;9.850;2023-04-16T04:32:41;98610.23;;;8.74;78.90
77323;BME280;66384;51.052;9.850;2023-04-16T04:35:11;98609.58;;;8.75;79.02
77323;BME280;66384;51.052;9.850;2023-04-16T04:37:40;98611.17;;;8.76;79.08
77323;BME280;66384;51.052;9.850;2023-04-16T04:40:11;98611.11;;;8.75;78.90
77323;BME280;66384;51.052;9.850;2023-04-16T04:42:40;98610.67;;;8.72;79.10
77323;BME280;66384;51.052;9.850;2023-04-16T04:45:11;98609.73;;;8.69;78.94
77323;BME280;66384;51.052;9.850;2023-04-16T04:47:40;98615.35;;;8.68;79.07
77323;BME280;66384;51.052;9.850;2023-04-16T04:50:10;98617.71;;;8.66;78.97
77323;BME280;66384;51.052;9.850;2023-04-16T04:52:39;98618.17;;;8.65;78.97
77323;BME280;66384;51.052;9.850;2023-04-16T04:55:11;98623.48;;;8.65;78.91
77323;BME280;66384;51.052;9.850;2023-04-16T04:57:42;98624.38;;;8.66;79.08
77323;BME280;66384;51.052;9.850;2023-04-16T05:00:13;98627.88;;;8.68;79.00
77323;BME280;66384;51.052;9.850;2023-04-16T05:02:43;98627.42;;;8.70;78.95
77323;BME280;66384;51.052;9.850;2023-04-16T05:05:12;98634.35;;;8.72;78.89
77323;BME280;66384;51.052;9.850;2023-04-16T05:07:41;98638.88;;;8.75;79.00
77323;BME280;66384;51.052;9.850;2023-04-16T05:10:11;98638.91;;;8.75;78.68
77323;BME280;66384;51.052;9.850;2023-04-16T05:12:40;98639.80;;;8.77;78.75
77323;BME280;66384;51.052;9.850;2023-04-16T05:15:10;98641.69;;;8.76;78.48
77323;BME280;66384;51.052;9.850;2023-04-16T05:17:40;98643.57;;;8.76;78.52
77323;BME280;66384;51.052;9.850;2023-04-16T05:20:10;98641.80;;;8.75;78.58
77323;BME280;66384;51.052;9.850;2023-04-16T05:22:39;98646.43;;;8.75;78.66
77323;BME280;66384;51.052;9.850;2023-04-16T05:25:09;98651.20;;;8.74;78.79
77323;BME280;66384;51.052;9.850;2023-04-16T05:27:38;98653.63;;;8.75;78.82
77323;BME280;66384;51.052;9.850;2023-04-16T05:30:09;98659.13;;;8.75;78.59
77323;BME280;66384;51.052;9.850;2023-04-16T05:32:37;98664.59;;;8.74;78.87
77323;BME280;66384;51.052;9.850;2023-04-16T05:35:07;98666.31;;;8.75;78.64
77323;BME280;66384;51.052;9.850;2023-04-16T05:37:37;98667.88;;;8.75;78.91
77323;BME280;66384;51.052;9.850;2023-04-16T05:40:08;98667.85;;;8.75;78.67
77323;BME280;66384;51.052;9.850;2023-04-16T05:42:38;98672.30;;;8.74;78.80
77323;BME280;66384;51.052;9.850;2023-04-16T05:45:09;98675.39;;;8.74;78.75
77323;BME280;66384;51.052;9.850;2023-04-16T05:47:38;98679.14;;;8.73;78.86
77323;BME280;66384;51.052;9.850;2023-04-16T05:50:09;98679.75;;;8.71;78.88
77323;BME280;66384;51.052;9.850;2023-04-16T05:52:38;98684.46;;;8.69;78.86
77323;BME280;66384;51.052;9.850;2023-04-16T05:55:08;98693.74;;;8.69;78.92
77323;BME280;66384;51.052;9.850;2023-04-16T05:57:38;98693.41;;;8.69;79.04
77323;BME280;66384;51.052;9.850;2023-04-16T06:00:08;98696.53;;;8.71;79.20
77323;BME280;66384;51.052;9.850;2023-04-16T06:02:38;98699.64;;;8.71;79.24
77323;BME280;66384;51.052;9.850;2023-04-16T06:05:08;98696.02;;;8.71;79.06
77323;BME280;66384;51.052;9.850;2023-04-16T06:07:37;98699.32;;;8.72;79.09
77323;BME280;66384;51.052;9.850;2023-04-16T06:10:08;98699.73;;;8.74;79.23
77323;BME280;66384;51.052;9.850;2023-04-16T06:12:37;98699.23;;;8.74;79.04
77323;BME280;66384;51.052;9.850;2023-04-16T06:15:08;98702.05;;;8.77;78.94
77323;BME280;66384;51.052;9.850;2023-04-16T06:17:38;98701.77;;;8.79;78.90
77323;BME280;66384;51.052;9.850;2023-04-16T06:20:09;98706.65;;;8.81;79.15
77323;BME280;66384;51.052;9.850;2023-04-16T06:22:38;98711.20;;;8.83;78.90
77323;BME280;66384;51.052;9.850;2023-04-16T06:25:09;98709.89;;;8.85;78.80
77323;BME280;66384;51.052;9.850;2023-04-16T06:27:38;98714.73;;;8.86;78.76
77323;BME280;66384;51.052;9.850;2023-04-16T06:30:11;98714.89;;;8.87;78.70
77323;BME280;66384;51.052;9.850;2023-04-16T06:32:42;98717.45;;;8.86;78.96
77323;BME280;66384;51.052;9.850;2023-04-16T06:35:11;98723.98;;;8.86;78.58
77323;BME280;66384;51.052;9.850;2023-04-16T06:37:41;98722.79;;;8.86;78.80
77323;BME280;66384;51.052;9.850;2023-04-16T06:40:11;98725.56;;;8.87;78.81
77323;BME280;66384;51.052;9.850;2023-04-16T06:42:41;98726.44;;;8.88;78.69
77323;BME280;66384;51.052;9.850;2023-04-16T06:45:11;98724.08;;;8.89;78.88
77323;BME280;66384;51.052;9.850;2023-04-16T06:47:41;98726.88;;;8.91;78.78
77323;BME280;66384;51.052;9.850;2023-04-16T06:50:11;98730.17;;;8.92;78.63
77323;BME280;66384;51.052;9.850;2023-04-16T06:52:40;98730.15;;;8.91;78.72
77323;BME280;66384;51.052;9.850;2023-04-16T06:55:10;98733.05;;;8.91;78.63
77323;BME280;66384;51.052;9.850;2023-04-16T06:57:39;98734.81;;;8.93;78.59
77323;BME280;66384;51.052;9.850;2023-04-16T07:00:10;98730.76;;;8.94;78.74
77323;BME280;66384;51.052;9.850;2023-04-16T07:02:38;98734.42;;;8.96;78.70
77323;BME280;66384;51.052;9.850;2023-04-16T07:05:08;98733.23;;;8.96;78.49
77323;BME280;66384;51.052;9.850;2023-04-16T07:07:37;98737.92;;;8.98;78.42
77323;BME280;66384;51.052;9.850;2023-04-16T07:10:08;98735.59;;;9.00;78.67
77323;BME280;66384;51.052;9.850;2023-04-16T07:12:36;98742.05;;;9.03;78.61
77323;BME280;66384;51.052;9.850;2023-04-16T07:15:08;98736.94;;;9.05;78.28
77323;BME280;66384;51.052;9.850;2023-04-16T07:17:37;98742.15;;;9.07;78.41
77323;BME280;66384;51.052;9.850;2023-04-16T07:20:10;98742.33;;;9.07;78.43
77323;BME280;66384;51.052;9.850;2023-04-16T07:22:38;98747.17;;;9.08;78.31
77323;BME280;66384;51.052;9.850;2023-04-16T07:25:09;98751.00;;;9.10;78.36
77323;BME280;66384;51.052;9.850;2023-04-16T07:27:38;98747.77;;;9.10;78.24
77323;BME280;66384;51.052;9.850;2023-04-16T07:30:09;98753.81;;;9.12;78.21
77323;BME280;66384;51.052;9.850;2023-04-16T07:32:38;98757.77;;;9.12;77.95
77323;BME280;66384;51.052;9.850;2023-04-16T07:35:08;98763.77;;;9.12;77.96
77323;BME280;66384;51.052;9.850;2023-04-16T07:37:38;98765.64;;;9.11;77.86
77323;BME280;66384;51.052;9.850;2023-04-16T07:40:09;98766.98;;;9.10;77.89
77323;BME280;66384;51.052;9.850;2023-04-16T07:42:38;98766.89;;;9.08;77.73
77323;BME280;66384;51.052;9.850;2023-04-16T07:45:09;98771.15;;;9.07;77.77
77323;BME280;66384;51.052;9.850;2023-04-16T07:47:39;98772.85;;;9.06;77.85
77323;BME280;66384;51.052;9.850;2023-04-16T07:50:10;98773.02;;;9.06;77.58
77323;BME280;66384;51.052;9.850;2023-04-16T07:52:39;98774.52;;;9.05;77.81
77323;BME280;66384;51.052;9.850;2023-04-16T07:55:12;98776.69;;;9.03;77.57
77323;BME280;66384;51.052;9.850;2023-04-16T07:57:42;98778.24;;;9.03;77.60
77323;BME280;66384;51.052;9.850;2023-04-16T08:00:12;98782.54;;;9.04;77.60
77323;BME280;66384;51.052;9.850;2023-04-16T08:02:41;98785.64;;;9.04;77.75
77323;BME280;66384;51.052;9.850;2023-04-16T08:05:11;98782.37;;;9.04;77.27
77323;BME280;66384;51.052;9.850;2023-04-16T08:07:40;98789.30;;;9.01;77.43
77323;BME280;66384;51.052;9.850;2023-04-16T08:10:10;98793.12;;;8.97;77.13
77323;BME280;66384;51.052;9.850;2023-04-16T08:12:40;98793.04;;;8.95;77.36
77323;BME280;66384;51.052;9.850;2023-04-16T08:15:10;98798.31;;;8.94;77.49
77323;BME280;66384;51.052;9.850;2023-04-16T08:17:39;98797.06;;;8.92;77.65
77323;BME280;66384;51.052;9.850;2023-04-16T08:20:10;98803.84;;;8.94;77.51
77323;BME280;66384;51.052;9.850;2023-04-16T08:22:39;98807.52;;;8.97;77.76
77323;BME280;66384;51.052;9.850;2023-04-16T08:25:10;98808.39;;;8.97;77.59
77323;BME280;66384;51.052;9.850;2023-04-16T08:27:39;98811.73;;;9.00;77.72
77323;BME280;66384;51.052;9.850;2023-04-16T08:30:09;98817.83;;;9.02;77.48
77323;BME280;66384;51.052;9.850;2023-04-16T08:32:39;98819.95;;;9.04;77.67
77323;BME280;66384;51.052;9.850;2023-04-16T08:35:09;98824.35;;;9.07;77.61
77323;BME280;66384;51.052;9.850;2023-04-16T08:37:38;98828.16;;;9.08;77.57
77323;BME280;66384;51.052;9.850;2023-04-16T08:40:09;98825.98;;;9.10;77.53
77323;BME280;66384;51.052;9.850;2023-04-16T08:42:38;98830.54;;;9.13;77.48
77323;BME280;66384;51.052;9.850;2023-04-16T08:45:07;98833.01;;;9.15;77.39
77323;BME280;66384;51.052;9.850;2023-04-16T08:47:42;98831.30;;;9.15;77.56
77323;BME280;66384;51.052;9.850;2023-04-16T08:50:15;98833.27;;;9.13;77.27
77323;BME280;66384;51.052;9.850;2023-04-16T08:52:49;98840.13;;;9.12;77.39
77323;BME280;66384;51.052;9.850;2023-04-16T08:55:20;98841.65;;;9.11;77.33
77323;BME280;66384;51.052;9.850;2023-04-16T08:57:51;98844.88;;;9.10;77.10
77323;BME280;66384;51.052;9.850;2023-04-16T09:00:22;98848.98;;;9.10;77.11
77323;BME280;66384;51.052;9.850;2023-04-16T09:02:51;98849.38;;;9.11;77.37
77323;BME280;66384;51.052;9.850;2023-04-16T09:05:22;98855.23;;;9.12;77.23
77323;BME280;66384;51.052;9.850;2023-04-16T09:07:51;98859.33;;;9.11;77.25
77323;BME280;66384;51.052;9.850;2023-04-16T09:10:21;98863.42;;;9.11;77.38
77323;BME280;66384;51.052;9.850;2023-04-16T09:12:51;98863.86;;;9.08;77.49
77323;BME280;66384;51.052;9.850;2023-04-16T09:15:24;98869.04;;;9.09;77.36
77323;BME280;66384;51.052;9.850;2023-04-16T09:17:53;98874.12;;;9.08;77.16
77323;BME280;66384;51.052;9.850;2023-04-16T09:20:23;98873.83;;;9.04;77.10
77323;BME280;66384;51.052;9.850;2023-04-16T09:22:53;98878.05;;;9.02;77.15
77323;BME280;66384;51.052;9.850;2023-04-16T09:25:22;98879.50;;;9.00;76.78
77323;BME280;66384;51.052;9.850;2023-04-16T09:27:53;98882.36;;;8.98;76.86
77323;BME280;66384;51.052;9.850;2023-04-16T09:30:26;98889.30;;;8.96;76.92
77323;BME280;66384;51.052;9.850;2023-04-16T09:33:13;98899.90;;;8.95;76.83
77323;BME280;66384;51.052;9.850;2023-04-16T09:35:47;98900.00;;;8.93;76.91
77323;BME280;66384;51.052;9.850;2023-04-16T09:38:18;98903.57;;;8.91;76.97
77323;BME280;66384;51.052;9.850;2023-04-16T09:40:48;98900.91;;;8.89;76.55
77323;BME280;66384;51.052;9.850;2023-04-16T09:43:33;98904.95;;;8.87;76.76
77323;BME280;66384;51.052;9.850;2023-04-16T09:46:04;98906.44;;;8.85;76.88
77323;BME280;66384;51.052;9.850;2023-04-16T09:48:34;98909.85;;;8.85;77.11
77323;BME280;66384;51.052;9.850;2023-04-16T09:51:06;98908.33;;;8.85;76.92
77323;BME280;66384;51.052;9.850;2023-04-16T09:53:35;98914.65;;;8.85;76.48
77323;BME280;66384;51.052;9.850;2023-04-16T09:56:07;98916.98;;;8.83;76.67
77323;BME280;66384;51.052;9.850;2023-04-16T09:58:37;98921.40;;;8.82;76.73
77323;BME280;66384;51.052;9.850;2023-04-16T10:01:09;98927.27;;;8.83;76.98
77323;BME280;66384;51.052;9.850;2023-04-16T10:03:39;98928.55;;;8.85;76.67
77323;BME280;66384;51.052;9.850;2023-04-16T10:06:15;98931.75;;;8.88;76.93
77323;BME280;66384;51.052;9.850;2023-04-16T10:08:47;98928.91;;;8.90;76.53
77323;BME280;66384;51.052;9.850;2023-04-16T10:11:16;98935.50;;;8.93;76.42
77323;BME280;66384;51.052;9.850;2023-04-16T10:13:46;98937.80;;;8.94;76.40
77323;BME280;66384;51.052;9.850;2023-04-16T10:16:16;98940.63;;;8.96;76.27
77323;BME280;66384;51.052;9.850;2023-04-16T10:18:46;98944.44;;;8.98;76.30
77323;BME280;66384;51.052;9.850;2023-04-16T10:21:15;98945.33;;;8.98;76.24
77323;BME280;66384;51.052;9.850;2023-04-16T10:23:45;98944.44;;;8.98;75.84
77323;BME280;66384;51.052;9.850;2023-04-16T10:26:18;98944.94;;;8.97;76.04
77323;BME280;66384;51.052;9.850;2023-04-16T10:28:48;98948.23;;;8.98;76.02
77323;BME280;66384;51.052;9.850;2023-04-16T10:31:18;98945.70;;;8.99;76.25
77323;BME280;66384;51.052;9.850;2023-04-16T10:33:47;98951.59;;;9.01;75.86
77323;BME280;66384;51.052;9.850;2023-04-16T10:36:23;98953.67;;;9.01;75.96
77323;BME280;66384;51.052;9.850;2023-04-16T10:38:57;98955.88;;;9.01;75.56
77323;BME280;66384;51.052;9.850;2023-04-16T10:41:27;98956.45;;;8.98;76.11
77323;BME280;66384;51.052;9.850;2023-04-16T10:44:05;98957.52;;;8.99;76.15
77323;BME280;66384;51.052;9.850;2023-04-16T10:46:39;98959.11;;;9.00;75.65
77323;BME280;66384;51.052;9.850;2023-04-16T10:49:15;98956.95;;;8.97;75.62
77323;BME280;66384;51.052;9.850;2023-04-16T10:51:53;98959.45;;;8.95;75.78
77323;BME280;66384;51.052;9.850;2023-04-16T10:54:43;98960.29;;;8.94;75.66
77323;BME280;66384;51.052;9.850;2023-04-16T10:57:18;98961.60;;;8.93;75.94
77323;BME280;66384;51.052;9.850;2023-04-16T10:59:49;98965.33;;;8.92;75.58
77323;BME280;66384;51.052;9.850;2023-04-16T11:02:18;98963.24;;;8.91;75.66
77323;BME280;66384;51.052;9.850;2023-04-16T11:04:48;98966.81;;;8.90;75.96
77323;BME280;66384;51.052;9.850;2023-04-16T11:07:19;98969.08;;;8.91;75.91
77323;BME280;66384;51.052;9.850;2023-04-16T11:09:53;98972.55;;;8.93;75.74
77323;BME280;66384;51.052;9.850;2023-04-16T11:12:24;98974.11;;;8.93;75.54
77323;BME280;66384;51.052;9.850;2023-04-16T11:15:01;98970.12;;;8.92;75.51
77323;BME280;66384;51.052;9.850;2023-04-16T11:17:35;98970.58;;;8.90;75.46
77323;BME280;66384;51.052;9.850;2023-04-16T11:20:06;98969.65;;;8.88;75.27
77323;BME280;66384;51.052;9.850;2023-04-16T11:22:36;98970.96;;;8.87;75.48
77323;BME280;66384;51.052;9.850;2023-04-16T11:25:07;98975.55;;;8.85;75.65
77323;BME280;66384;51.052;9.850;2023-04-16T11:27:36;98975.73;;;8.86;75.73
77323;BME280;66384;51.052;9.850;2023-04-16T11:30:07;98979.44;;;8.88;75.72
77323;BME280;66384;51.052;9.850;2023-04-16T11:32:38;98981.60;;;8.91;75.98
77323;BME280;66384;51.052;9.850;2023-04-16T11:35:16;98980.16;;;8.94;75.81
77323;BME280;66384;51.052;9.850;2023-04-16T11:37:46;98984.11;;;8.94;75.46
77323;BME280;66384;51.052;9.850;2023-04-16T11:40:16;98985.77;;;8.97;75.84
77323;BME280;66384;51.052;9.850;2023-04-16T11:42:45;98984.14;;;8.99;75.57
77323;BME280;66384;51.052;9.850;2023-04-16T11:45:15;98986.77;;;9.01;75.77
77323;BME280;66384;51.052;9.850;2023-04-16T11:47:45;98991.70;;;9.04;75.87
77323;BME280;66384;51.052;9.850;2023-04-16T11:50:19;98989.73;;;9.06;76.16
77323;BME280;66384;51.052;9.850;2023-04-16T11:52:50;98988.42;;;9.08;76.08
77323;BME280;66384;51.052;9.850;2023-04-16T11:55:20;98989.02;;;9.11;75.81
77323;BME280;66384;51.052;9.850;2023-04-16T11:57:50;98991.69;;;9.14;76.02
77323;BME280;66384;51.052;9.850;2023-04-16T12:00:20;98993.83;;;9.16;75.62
77323;BME280;66384;51.052;9.850;2023-04-16T12:02:52;98990.75;;;9.16;75.68
77323;BME280;66384;51.052;9.850;2023-04-16T12:05:29;98995.05;;;9.16;75.71
77323;BME280;66384;51.052;9.850;2023-04-16T12:07:59;98994.33;;;9.15;75.57
77323;BME280;66384;51.052;9.850;2023-04-16T12:10:30;98998.79;;;9.16;75.69
77323;BME280;66384;51.052;9.850;2023-04-16T12:13:12;98996.59;;;9.16;75.84
77323;BME280;66384;51.052;9.850;2023-04-16T12:15:47;98996.48;;;9.19;75.77
77323;BME280;66384;51.052;9.850;2023-04-16T12:18:17;99001.23;;;9.21;75.89
77323;BME280;66384;51.052;9.850;2023-04-16T12:20:47;99003.51;;;9.23;75.87
77323;BME280;66384;51.052;9.850;2023-04-16T12:23:25;99003.28;;;9.26;76.03
77323;BME280;66384;51.052;9.850;2023-04-16T12:25:55;99002.88;;;9.29;75.98
77323;BME280;66384;51.052;9.850;2023-04-16T12:28:30;99003.80;;;9.31;75.95
77323;BME280;66384;51.052;9.850;2023-04-16T12:30:58;99001.32;;;9.33;75.85
77323;BME280;66384;51.052;9.850;2023-04-16T12:33:28;99002.64;;;9.37;75.51
77323;BME280;66384;51.052;9.850;2023-04-16T12:35:57;99003.20;;;9.38;75.55
77323;BME280;66384;51.052;9.850;2023-04-16T12:38:26;99001.58;;;9.40;75.37
77323;BME280;66384;51.052;9.850;2023-04-16T12:40:56;99001.30;;;9.42;75.34
77323;BME280;66384;51.052;9.850;2023-04-16T12:43:25;99004.98;;;9.44;75.17
77323;BME280;66384;51.052;9.850;2023-04-16T12:45:55;99006.90;;;9.45;75.10
77323;BME280;66384;51.052;9.850;2023-04-16T12:48:24;99008.50;;;9.47;75.24
77323;BME280;66384;51.052;9.850;2023-04-16T12:50:55;99013.55;;;9.49;75.04
77323;BME280;66384;51.052;9.850;2023-04-16T12:53:24;99012.20;;;9.49;74.67
77323;BME280;66384;51.052;9.850;2023-04-16T12:55:54;99008.77;;;9.50;74.44
77323;BME280;66384;51.052;9.850;2023-04-16T12:58:23;99007.98;;;9.47;74.54
77323;BME280;66384;51.052;9.850;2023-04-16T13:00:52;99005.48;;;9.43;74.42
77323;BME280;66384;51.052;9.850;2023-04-16T13:03:21;99009.95;;;9.39;74.34
77323;BME280;66384;51.052;9.850;2023-04-16T13:05:51;99004.86;;;9.37;74.49
77323;BME280;66384;51.052;9.850;2023-04-16T13:08:20;99008.80;;;9.36;74.74
77323;BME280;66384;51.052;9.850;2023-04-16T13:10:49;99011.00;;;9.35;74.83
77323;BME280;66384;51.052;9.850;2023-04-16T13:13:19;99014.45;;;9.35;74.83
77323;BME280;66384;51.052;9.850;2023-04-16T13:15:48;99017.75;;;9.37;75.07
77323;BME280;66384;51.052;9.850;2023-04-16T13:18:18;99015.53;;;9.37;75.03
77323;BME280;66384;51.052;9.850;2023-04-16T13:20:49;99016.04;;;9.37;75.22
77323;BME280;66384;51.052;9.850;2023-04-16T13:23:19;99017.16;;;9.39;75.20
77323;BME280;66384;51.052;9.850;2023-04-16T13:25:49;99018.39;;;9.40;75.17